Terminal Aerodrome Forecast
Issued by NWS

Current Version | Previous Version | Graphics & Text | Print | Product List | Glossary On
Versions: 1 2 3 4 5 6 7 8 9 10 11 12 13 14
000
FTUS41 KPBZ 261727
TAFHLG
TAF
KHLG 261727Z 2618/2718 21010KT P6SM BKN040
     FM262300 22005KT P6SM BKN100
     FM271000 20002KT 4SM BR BKN250
     FM271300 23008KT P6SM SCT050=

USA.gov is the U.S. government's official web portal to all federal, state and local government web resources and services.